Overview Statistics Trail Chart Weather Telemetry Raw packets
 

This is the latest recevied weather packets stored in our database for station/object SP2CDN-10. If no packets are shown the sender has not sent any weather packets the latest 10 day(s).

<< 8 9 10 11 12 13 14 >>
Time Temp. Humidity Pressure Rain* Wind** Luminosity Snow
1788152092 15.56° C 100% 1011.8 hPa - - - -
1788149811 15° C 100% 1011.9 hPa - - - -
1788147529 15° C 100% 1011.9 hPa - - - -
1788145247 15° C 100% 1011.9 hPa - - - -
1788142966 15.56° C 99% 1011.9 hPa - - - -
1788138402 17.22° C 91% 1011.9 hPa - - - -
1788136121 16.67° C 90% 1012 hPa - - - -
1788133839 16.67° C 89% 1011.9 hPa - - - -
1788131557 18.33° C 85% 1012 hPa - - - -
1788129276 18.33° C 81% 1011.9 hPa - - - -
1788126994 19.44° C 77% 1011.8 hPa - - - -
1788124713 20° C 73% 1011.6 hPa - - - -
1788122447 20.56° C 71% 1011.5 hPa - - - -
1788121071 21.11° C 70% 1011.4 hPa - - - -
1788118788 21.11° C 70% 1011.2 hPa - - - -
1788116508 21.67° C 69% 1011 hPa - - - -
1788114215 22.22° C 66% 1010.9 hPa - - - -
1788111933 23.33° C 61% 1010.4 hPa - - - -
1788109651 25° C 53% 1010.2 hPa - - - -
1788107370 27.78° C 44% 1010 hPa - - - -
1788105105 28.33° C 41% 1010.3 hPa - - - -
1788102808 32.78° C 32% 1010.4 hPa - - - -
1788100525 28.33° C 41% 1010.7 hPa - - - -
1788098244 31.11° C 33% 1010.7 hPa - - - -
1788095962 30° C 37% 1010.5 hPa - - - -

* Rain since midnight (hover to see other rain measurements)
** Current wind speed in m/s (hover to see current wind gust speed)